sensor_id;sensor_type;location;lat;lon;timestamp;P1;durP1;ratioP1;P2;durP2;ratioP2
55112;SDS011;41006;50.920;3.456;2023-04-25T00:00:02;22.98;;;19.80;;
55112;SDS011;41006;50.920;3.456;2023-04-25T00:00:33;22.50;;;20.10;;
55112;SDS011;41006;50.920;3.456;2023-04-25T00:01:06;24.80;;;19.45;;
55112;SDS011;41006;50.920;3.456;2023-04-25T00:01:39;21.85;;;19.40;;
55112;SDS011;41006;50.920;3.456;2023-04-25T00:02:09;27.27;;;20.70;;
55112;SDS011;41006;50.920;3.456;2023-04-25T00:02:39;25.73;;;20.77;;
55112;SDS011;41006;50.920;3.456;2023-04-25T00:03:09;26.40;;;20.52;;
55112;SDS011;41006;50.920;3.456;2023-04-25T00:03:43;29.33;;;21.30;;
55112;SDS011;41006;50.920;3.456;2023-04-25T00:04:13;23.00;;;20.55;;
55112;SDS011;41006;50.920;3.456;2023-04-25T00:04:46;22.92;;;20.52;;
55112;SDS011;41006;50.920;3.456;2023-04-25T00:05:19;23.42;;;20.30;;
55112;SDS011;41006;50.920;3.456;2023-04-25T00:05:53;22.60;;;20.30;;
55112;SDS011;41006;50.920;3.456;2023-04-25T00:06:23;27.25;;;21.48;;
55112;SDS011;41006;50.920;3.456;2023-04-25T00:06:56;24.65;;;21.10;;
55112;SDS011;41006;50.920;3.456;2023-04-25T00:07:27;22.38;;;19.92;;
55112;SDS011;41006;50.920;3.456;2023-04-25T00:07:57;26.92;;;20.58;;
55112;SDS011;41006;50.920;3.456;2023-04-25T00:08:28;21.98;;;19.92;;
55112;SDS011;41006;50.920;3.456;2023-04-25T00:08:59;24.17;;;20.33;;
55112;SDS011;41006;50.920;3.456;2023-04-25T00:09:33;25.73;;;20.98;;
55112;SDS011;41006;50.920;3.456;2023-04-25T00:10:06;26.67;;;20.25;;
55112;SDS011;41006;50.920;3.456;2023-04-25T00:10:38;27.15;;;20.92;;
55112;SDS011;41006;50.920;3.456;2023-04-25T00:11:09;23.00;;;20.65;;
55112;SDS011;41006;50.920;3.456;2023-04-25T00:11:40;22.73;;;19.08;;
55112;SDS011;41006;50.920;3.456;2023-04-25T00:12:10;28.38;;;20.02;;
55112;SDS011;41006;50.920;3.456;2023-04-25T00:12:42;29.08;;;20.40;;
55112;SDS011;41006;50.920;3.456;2023-04-25T00:13:13;22.92;;;20.48;;
55112;SDS011;41006;50.920;3.456;2023-04-25T00:13:44;25.42;;;20.92;;
55112;SDS011;41006;50.920;3.456;2023-04-25T00:14:19;23.67;;;21.23;;
55112;SDS011;41006;50.920;3.456;2023-04-25T00:14:52;30.40;;;22.30;;
55112;SDS011;41006;50.920;3.456;2023-04-25T00:15:23;22.88;;;20.48;;
55112;SDS011;41006;50.920;3.456;2023-04-25T00:15:58;27.60;;;21.35;;
55112;SDS011;41006;50.920;3.456;2023-04-25T00:16:32;25.95;;;21.38;;
55112;SDS011;41006;50.920;3.456;2023-04-25T00:17:04;26.25;;;21.58;;
55112;SDS011;41006;50.920;3.456;2023-04-25T00:17:37;24.20;;;21.55;;
55112;SDS011;41006;50.920;3.456;2023-04-25T00:18:08;23.88;;;21.35;;
55112;SDS011;41006;50.920;3.456;2023-04-25T00:18:39;29.00;;;22.40;;
55112;SDS011;41006;50.920;3.456;2023-04-25T00:19:12;26.10;;;22.60;;
55112;SDS011;41006;50.920;3.456;2023-04-25T00:19:43;23.33;;;21.13;;
55112;SDS011;41006;50.920;3.456;2023-04-25T00:20:16;23.58;;;21.15;;
55112;SDS011;41006;50.920;3.456;2023-04-25T00:20:48;28.67;;;21.73;;
55112;SDS011;41006;50.920;3.456;2023-04-25T00:21:19;32.10;;;21.67;;
55112;SDS011;41006;50.920;3.456;2023-04-25T00:21:49;24.05;;;21.50;;
55112;SDS011;41006;50.920;3.456;2023-04-25T00:22:20;25.90;;;21.55;;
55112;SDS011;41006;50.920;3.456;2023-04-25T00:22:52;23.95;;;21.48;;
55112;SDS011;41006;50.920;3.456;2023-04-25T00:23:27;23.83;;;21.30;;
55112;SDS011;41006;50.920;3.456;2023-04-25T00:23:58;29.27;;;21.67;;
55112;SDS011;41006;50.920;3.456;2023-04-25T00:24:31;31.33;;;23.00;;
55112;SDS011;41006;50.920;3.456;2023-04-25T00:25:07;28.60;;;21.88;;
55112;SDS011;41006;50.920;3.456;2023-04-25T00:25:37;37.63;;;23.17;;
55112;SDS011;41006;50.920;3.456;2023-04-25T00:26:12;23.73;;;21.27;;
55112;SDS011;41006;50.920;3.456;2023-04-25T00:26:42;23.98;;;21.58;;
55112;SDS011;41006;50.920;3.456;2023-04-25T00:27:12;27.65;;;21.63;;
55112;SDS011;41006;50.920;3.456;2023-04-25T00:27:43;24.13;;;21.83;;
55112;SDS011;41006;50.920;3.456;2023-04-25T00:28:13;24.58;;;21.90;;
55112;SDS011;41006;50.920;3.456;2023-04-25T00:28:43;29.35;;;22.00;;
55112;SDS011;41006;50.920;3.456;2023-04-25T00:29:14;25.13;;;22.27;;
55112;SDS011;41006;50.920;3.456;2023-04-25T00:29:44;23.30;;;20.65;;
55112;SDS011;41006;50.920;3.456;2023-04-25T00:30:16;31.40;;;21.58;;
55112;SDS011;41006;50.920;3.456;2023-04-25T00:30:47;25.05;;;22.00;;
55112;SDS011;41006;50.920;3.456;2023-04-25T00:31:20;24.48;;;21.10;;
55112;SDS011;41006;50.920;3.456;2023-04-25T00:31:50;23.52;;;20.30;;
55112;SDS011;41006;50.920;3.456;2023-04-25T00:32:20;24.38;;;21.63;;
55112;SDS011;41006;50.920;3.456;2023-04-25T00:32:53;30.08;;;21.58;;
55112;SDS011;41006;50.920;3.456;2023-04-25T00:33:23;25.17;;;21.45;;
55112;SDS011;41006;50.920;3.456;2023-04-25T00:33:53;23.88;;;21.50;;
55112;SDS011;41006;50.920;3.456;2023-04-25T00:34:24;24.23;;;21.85;;
55112;SDS011;41006;50.920;3.456;2023-04-25T00:34:54;23.77;;;21.42;;
55112;SDS011;41006;50.920;3.456;2023-04-25T00:35:25;24.60;;;22.00;;
55112;SDS011;41006;50.920;3.456;2023-04-25T00:35:58;30.00;;;23.15;;
55112;SDS011;41006;50.920;3.456;2023-04-25T00:36:28;25.85;;;22.92;;
55112;SDS011;41006;50.920;3.456;2023-04-25T00:36:59;30.70;;;23.20;;
55112;SDS011;41006;50.920;3.456;2023-04-25T00:37:32;27.80;;;23.02;;
55112;SDS011;41006;50.920;3.456;2023-04-25T00:38:04;25.80;;;21.73;;
55112;SDS011;41006;50.920;3.456;2023-04-25T00:38:35;28.25;;;21.60;;
55112;SDS011;41006;50.920;3.456;2023-04-25T00:39:05;25.30;;;22.50;;
55112;SDS011;41006;50.920;3.456;2023-04-25T00:39:40;27.15;;;22.33;;
55112;SDS011;41006;50.920;3.456;2023-04-25T00:40:10;29.00;;;22.77;;
55112;SDS011;41006;50.920;3.456;2023-04-25T00:40:41;29.40;;;22.85;;
55112;SDS011;41006;50.920;3.456;2023-04-25T00:41:13;25.95;;;22.77;;
55112;SDS011;41006;50.920;3.456;2023-04-25T00:41:44;25.92;;;22.48;;
55112;SDS011;41006;50.920;3.456;2023-04-25T00:42:17;28.73;;;23.73;;
55112;SDS011;41006;50.920;3.456;2023-04-25T00:42:47;31.88;;;23.63;;
55112;SDS011;41006;50.920;3.456;2023-04-25T00:43:18;26.52;;;23.73;;
55112;SDS011;41006;50.920;3.456;2023-04-25T00:43:48;35.60;;;23.90;;
55112;SDS011;41006;50.920;3.456;2023-04-25T00:44:19;30.58;;;23.23;;
55112;SDS011;41006;50.920;3.456;2023-04-25T00:44:50;25.00;;;22.65;;
55112;SDS011;41006;50.920;3.456;2023-04-25T00:45:23;29.33;;;23.48;;
55112;SDS011;41006;50.920;3.456;2023-04-25T00:45:57;27.05;;;23.00;;
55112;SDS011;41006;50.920;3.456;2023-04-25T00:46:27;26.17;;;23.30;;
55112;SDS011;41006;50.920;3.456;2023-04-25T00:47:00;30.63;;;24.15;;
55112;SDS011;41006;50.920;3.456;2023-04-25T00:47:33;27.23;;;23.23;;
55112;SDS011;41006;50.920;3.456;2023-04-25T00:48:07;29.02;;;23.52;;
55112;SDS011;41006;50.920;3.456;2023-04-25T00:48:37;28.13;;;23.30;;
55112;SDS011;41006;50.920;3.456;2023-04-25T00:49:10;30.35;;;22.38;;
55112;SDS011;41006;50.920;3.456;2023-04-25T00:49:45;33.38;;;23.80;;
55112;SDS011;41006;50.920;3.456;2023-04-25T00:50:18;29.08;;;23.63;;
55112;SDS011;41006;50.920;3.456;2023-04-25T00:50:55;29.10;;;22.90;;
55112;SDS011;41006;50.920;3.456;2023-04-25T00:51:28;33.25;;;24.63;;
55112;SDS011;41006;50.920;3.456;2023-04-25T00:52:00;26.35;;;23.52;;
55112;SDS011;41006;50.920;3.456;2023-04-25T00:52:30;32.08;;;24.13;;
55112;SDS011;41006;50.920;3.456;2023-04-25T00:53:00;26.63;;;24.05;;
55112;SDS011;41006;50.920;3.456;2023-04-25T00:53:31;30.38;;;23.77;;
55112;SDS011;41006;50.920;3.456;2023-04-25T00:54:02;29.45;;;23.17;;
55112;SDS011;41006;50.920;3.456;2023-04-25T00:54:32;29.10;;;23.08;;
55112;SDS011;41006;50.920;3.456;2023-04-25T00:55:02;33.65;;;24.95;;
55112;SDS011;41006;50.920;3.456;2023-04-25T00:55:37;30.67;;;22.92;;
55112;SDS011;41006;50.920;3.456;2023-04-25T00:56:07;26.17;;;23.23;;
55112;SDS011;41006;50.920;3.456;2023-04-25T00:56:38;27.52;;;23.33;;
55112;SDS011;41006;50.920;3.456;2023-04-25T00:57:08;30.75;;;23.70;;
55112;SDS011;41006;50.920;3.456;2023-04-25T00:57:41;32.95;;;22.40;;
55112;SDS011;41006;50.920;3.456;2023-04-25T00:58:16;26.98;;;22.60;;
55112;SDS011;41006;50.920;3.456;2023-04-25T00:58:49;28.17;;;22.58;;
55112;SDS011;41006;50.920;3.456;2023-04-25T00:59:20;24.75;;;22.35;;
55112;SDS011;41006;50.920;3.456;2023-04-25T00:59:53;32.83;;;23.92;;
55112;SDS011;41006;50.920;3.456;2023-04-25T01:00:24;30.67;;;22.67;;
55112;SDS011;41006;50.920;3.456;2023-04-25T01:00:54;31.25;;;23.13;;
55112;SDS011;41006;50.920;3.456;2023-04-25T01:01:26;28.08;;;22.20;;
55112;SDS011;41006;50.920;3.456;2023-04-25T01:01:59;26.92;;;22.85;;
55112;SDS011;41006;50.920;3.456;2023-04-25T01:02:30;30.35;;;23.15;;
55112;SDS011;41006;50.920;3.456;2023-04-25T01:03:01;32.72;;;22.35;;
55112;SDS011;41006;50.920;3.456;2023-04-25T01:03:34;26.90;;;21.88;;
55112;SDS011;41006;50.920;3.456;2023-04-25T01:04:10;33.72;;;23.05;;
55112;SDS011;41006;50.920;3.456;2023-04-25T01:04:43;24.75;;;22.17;;
55112;SDS011;41006;50.920;3.456;2023-04-25T01:05:13;28.52;;;23.80;;
55112;SDS011;41006;50.920;3.456;2023-04-25T01:05:48;26.17;;;23.40;;
55112;SDS011;41006;50.920;3.456;2023-04-25T01:06:18;26.02;;;23.30;;
55112;SDS011;41006;50.920;3.456;2023-04-25T01:06:52;26.88;;;24.15;;
55112;SDS011;41006;50.920;3.456;2023-04-25T01:07:22;25.88;;;23.20;;
55112;SDS011;41006;50.920;3.456;2023-04-25T01:07:52;29.88;;;24.20;;
55112;SDS011;41006;50.920;3.456;2023-04-25T01:08:23;28.75;;;22.73;;
55112;SDS011;41006;50.920;3.456;2023-04-25T01:08:54;29.30;;;23.38;;
55112;SDS011;41006;50.920;3.456;2023-04-25T01:09:25;27.23;;;23.08;;
55112;SDS011;41006;50.920;3.456;2023-04-25T01:09:55;25.83;;;23.05;;
55112;SDS011;41006;50.920;3.456;2023-04-25T01:10:26;25.17;;;22.73;;
55112;SDS011;41006;50.920;3.456;2023-04-25T01:10:59;30.17;;;23.45;;
55112;SDS011;41006;50.920;3.456;2023-04-25T01:11:34;25.63;;;23.00;;
55112;SDS011;41006;50.920;3.456;2023-04-25T01:12:09;30.88;;;24.05;;
55112;SDS011;41006;50.920;3.456;2023-04-25T01:12:39;31.50;;;24.38;;
55112;SDS011;41006;50.920;3.456;2023-04-25T01:13:09;31.88;;;23.30;;
55112;SDS011;41006;50.920;3.456;2023-04-25T01:13:42;25.38;;;22.90;;
55112;SDS011;41006;50.920;3.456;2023-04-25T01:14:12;25.33;;;22.65;;
55112;SDS011;41006;50.920;3.456;2023-04-25T01:14:46;29.65;;;24.67;;
55112;SDS011;41006;50.920;3.456;2023-04-25T01:15:18;25.63;;;23.10;;
55112;SDS011;41006;50.920;3.456;2023-04-25T01:15:49;26.55;;;23.65;;
55112;SDS011;41006;50.920;3.456;2023-04-25T01:16:21;26.25;;;23.63;;
55112;SDS011;41006;50.920;3.456;2023-04-25T01:16:53;32.25;;;22.13;;
55112;SDS011;41006;50.920;3.456;2023-04-25T01:17:26;32.15;;;22.65;;
55112;SDS011;41006;50.920;3.456;2023-04-25T01:17:57;26.65;;;22.05;;
55112;SDS011;41006;50.920;3.456;2023-04-25T01:18:28;24.58;;;21.42;;
55112;SDS011;41006;50.920;3.456;2023-04-25T01:18:58;28.02;;;21.90;;
55112;SDS011;41006;50.920;3.456;2023-04-25T01:19:29;27.77;;;21.35;;
55112;SDS011;41006;50.920;3.456;2023-04-25T01:20:07;32.10;;;23.45;;
55112;SDS011;41006;50.920;3.456;2023-04-25T01:20:39;27.33;;;21.10;;
55112;SDS011;41006;50.920;3.456;2023-04-25T01:21:12;24.58;;;21.60;;
55112;SDS011;41006;50.920;3.456;2023-04-25T01:21:43;25.83;;;21.92;;
55112;SDS011;41006;50.920;3.456;2023-04-25T01:22:13;26.45;;;22.60;;
55112;SDS011;41006;50.920;3.456;2023-04-25T01:22:46;25.65;;;22.23;;
55112;SDS011;41006;50.920;3.456;2023-04-25T01:23:17;28.17;;;22.13;;
55112;SDS011;41006;50.920;3.456;2023-04-25T01:23:50;24.33;;;21.73;;
55112;SDS011;41006;50.920;3.456;2023-04-25T01:24:23;25.13;;;22.45;;
55112;SDS011;41006;50.920;3.456;2023-04-25T01:24:54;24.30;;;22.17;;
55112;SDS011;41006;50.920;3.456;2023-04-25T01:25:27;24.88;;;22.00;;
55112;SDS011;41006;50.920;3.456;2023-04-25T01:25:57;35.85;;;21.42;;
55112;SDS011;41006;50.920;3.456;2023-04-25T01:26:28;29.13;;;21.42;;
55112;SDS011;41006;50.920;3.456;2023-04-25T01:27:00;23.30;;;21.02;;
55112;SDS011;41006;50.920;3.456;2023-04-25T01:27:33;27.70;;;22.73;;
55112;SDS011;41006;50.920;3.456;2023-04-25T01:28:06;24.17;;;21.52;;
55112;SDS011;41006;50.920;3.456;2023-04-25T01:28:39;31.00;;;21.52;;
55112;SDS011;41006;50.920;3.456;2023-04-25T01:29:13;37.65;;;21.58;;
55112;SDS011;41006;50.920;3.456;2023-04-25T01:29:46;32.47;;;21.33;;
55112;SDS011;41006;50.920;3.456;2023-04-25T01:30:18;25.77;;;20.88;;
55112;SDS011;41006;50.920;3.456;2023-04-25T01:30:49;35.47;;;21.95;;
55112;SDS011;41006;50.920;3.456;2023-04-25T01:31:20;27.80;;;20.85;;
55112;SDS011;41006;50.920;3.456;2023-04-25T01:31:51;23.73;;;21.23;;
55112;SDS011;41006;50.920;3.456;2023-04-25T01:32:21;28.40;;;21.55;;
55112;SDS011;41006;50.920;3.456;2023-04-25T01:32:55;27.80;;;20.58;;
55112;SDS011;41006;50.920;3.456;2023-04-25T01:33:26;23.63;;;20.58;;
55112;SDS011;41006;50.920;3.456;2023-04-25T01:33:59;22.55;;;20.17;;
55112;SDS011;41006;50.920;3.456;2023-04-25T01:34:30;28.98;;;20.20;;
55112;SDS011;41006;50.920;3.456;2023-04-25T01:35:00;28.00;;;19.90;;
55112;SDS011;41006;50.920;3.456;2023-04-25T01:35:35;27.35;;;19.50;;
55112;SDS011;41006;50.920;3.456;2023-04-25T01:36:05;24.55;;;20.75;;
55112;SDS011;41006;50.920;3.456;2023-04-25T01:36:36;31.02;;;19.58;;
55112;SDS011;41006;50.920;3.456;2023-04-25T01:37:06;21.88;;;19.63;;
55112;SDS011;41006;50.920;3.456;2023-04-25T01:37:42;22.70;;;19.20;;
55112;SDS011;41006;50.920;3.456;2023-04-25T01:38:14;25.88;;;18.90;;
55112;SDS011;41006;50.920;3.456;2023-04-25T01:38:45;26.45;;;18.90;;
55112;SDS011;41006;50.920;3.456;2023-04-25T01:39:17;22.10;;;18.95;;
55112;SDS011;41006;50.920;3.456;2023-04-25T01:39:47;21.63;;;19.33;;
55112;SDS011;41006;50.920;3.456;2023-04-25T01:40:18;26.23;;;20.83;;
55112;SDS011;41006;50.920;3.456;2023-04-25T01:40:55;21.85;;;19.27;;
55112;SDS011;41006;50.920;3.456;2023-04-25T01:41:27;25.27;;;19.20;;
55112;SDS011;41006;50.920;3.456;2023-04-25T01:41:58;27.83;;;19.30;;
55112;SDS011;41006;50.920;3.456;2023-04-25T01:42:31;23.33;;;18.80;;
55112;SDS011;41006;50.920;3.456;2023-04-25T01:43:01;32.38;;;19.95;;
55112;SDS011;41006;50.920;3.456;2023-04-25T01:43:32;23.85;;;19.15;;
55112;SDS011;41006;50.920;3.456;2023-04-25T01:44:05;27.23;;;18.52;;
55112;SDS011;41006;50.920;3.456;2023-04-25T01:44:35;30.85;;;19.27;;
55112;SDS011;41006;50.920;3.456;2023-04-25T01:45:06;27.15;;;19.42;;
55112;SDS011;41006;50.920;3.456;2023-04-25T01:45:37;28.23;;;18.48;;
55112;SDS011;41006;50.920;3.456;2023-04-25T01:46:11;19.08;;;17.10;;
55112;SDS011;41006;50.920;3.456;2023-04-25T01:46:41;29.30;;;19.10;;
55112;SDS011;41006;50.920;3.456;2023-04-25T01:47:12;19.27;;;17.38;;
55112;SDS011;41006;50.920;3.456;2023-04-25T01:47:44;20.60;;;17.95;;
55112;SDS011;41006;50.920;3.456;2023-04-25T01:48:19;21.85;;;19.50;;
55112;SDS011;41006;50.920;3.456;2023-04-25T01:48:51;21.30;;;18.75;;
55112;SDS011;41006;50.920;3.456;2023-04-25T01:49:21;22.65;;;16.88;;
55112;SDS011;41006;50.920;3.456;2023-04-25T01:49:54;18.63;;;16.83;;
55112;SDS011;41006;50.920;3.456;2023-04-25T01:50:24;18.98;;;17.05;;
55112;SDS011;41006;50.920;3.456;2023-04-25T01:50:59;22.60;;;17.13;;
55112;SDS011;41006;50.920;3.456;2023-04-25T01:51:29;22.50;;;17.40;;
55112;SDS011;41006;50.920;3.456;2023-04-25T01:52:00;18.80;;;16.83;;
55112;SDS011;41006;50.920;3.456;2023-04-25T01:52:30;19.80;;;17.67;;
55112;SDS011;41006;50.920;3.456;2023-04-25T01:53:00;21.23;;;17.60;;
55112;SDS011;41006;50.920;3.456;2023-04-25T01:53:34;18.75;;;16.77;;
55112;SDS011;41006;50.920;3.456;2023-04-25T01:54:07;22.88;;;17.27;;
55112;SDS011;41006;50.920;3.456;2023-04-25T01:54:37;21.00;;;16.80;;
55112;SDS011;41006;50.920;3.456;2023-04-25T01:55:11;23.30;;;19.52;;
55112;SDS011;41006;50.920;3.456;2023-04-25T01:55:41;20.85;;;18.20;;
55112;SDS011;41006;50.920;3.456;2023-04-25T01:56:11;26.08;;;18.30;;
55112;SDS011;41006;50.920;3.456;2023-04-25T01:56:49;22.48;;;18.05;;
55112;SDS011;41006;50.920;3.456;2023-04-25T01:57:19;21.23;;;17.92;;
55112;SDS011;41006;50.920;3.456;2023-04-25T01:57:50;22.60;;;19.73;;
55112;SDS011;41006;50.920;3.456;2023-04-25T01:58:20;26.00;;;19.42;;
55112;SDS011;41006;50.920;3.456;2023-04-25T01:58:52;25.52;;;18.90;;
55112;SDS011;41006;50.920;3.456;2023-04-25T01:59:23;20.10;;;17.90;;
55112;SDS011;41006;50.920;3.456;2023-04-25T02:00:00;27.35;;;18.40;;
55112;SDS011;41006;50.920;3.456;2023-04-25T02:00:31;26.20;;;18.42;;
55112;SDS011;41006;50.920;3.456;2023-04-25T02:01:02;21.85;;;19.75;;
55112;SDS011;41006;50.920;3.456;2023-04-25T02:01:32;33.20;;;18.60;;
55112;SDS011;41006;50.920;3.456;2023-04-25T02:02:05;21.05;;;18.85;;
55112;SDS011;41006;50.920;3.456;2023-04-25T02:02:35;26.25;;;20.15;;
55112;SDS011;41006;50.920;3.456;2023-04-25T02:03:05;26.48;;;20.45;;
55112;SDS011;41006;50.920;3.456;2023-04-25T02:03:36;29.25;;;21.10;;
55112;SDS011;41006;50.920;3.456;2023-04-25T02:04:06;21.80;;;19.58;;
55112;SDS011;41006;50.920;3.456;2023-04-25T02:04:36;22.67;;;19.25;;
55112;SDS011;41006;50.920;3.456;2023-04-25T02:05:07;23.98;;;19.92;;
55112;SDS011;41006;50.920;3.456;2023-04-25T02:05:37;25.58;;;19.88;;
55112;SDS011;41006;50.920;3.456;2023-04-25T02:06:08;24.17;;;18.92;;
55112;SDS011;41006;50.920;3.456;2023-04-25T02:06:38;22.58;;;20.27;;
55112;SDS011;41006;50.920;3.456;2023-04-25T02:07:10;25.00;;;22.40;;
55112;SDS011;41006;50.920;3.456;2023-04-25T02:07:44;24.35;;;20.67;;
55112;SDS011;41006;50.920;3.456;2023-04-25T02:08:16;32.17;;;20.75;;
55112;SDS011;41006;50.920;3.456;2023-04-25T02:08:48;24.10;;;20.92;;
55112;SDS011;41006;50.920;3.456;2023-04-25T02:09:18;24.23;;;20.63;;
55112;SDS011;41006;50.920;3.456;2023-04-25T02:09:51;24.85;;;22.17;;
55112;SDS011;41006;50.920;3.456;2023-04-25T02:10:21;28.08;;;20.98;;
55112;SDS011;41006;50.920;3.456;2023-04-25T02:10:51;23.02;;;20.73;;
55112;SDS011;41006;50.920;3.456;2023-04-25T02:11:22;27.95;;;20.52;;
55112;SDS011;41006;50.920;3.456;2023-04-25T02:11:54;21.95;;;19.88;;
55112;SDS011;41006;50.920;3.456;2023-04-25T02:12:27;23.00;;;20.38;;
55112;SDS011;41006;50.920;3.456;2023-04-25T02:13:00;22.65;;;20.20;;
55112;SDS011;41006;50.920;3.456;2023-04-25T02:13:30;25.70;;;20.73;;
55112;SDS011;41006;50.920;3.456;2023-04-25T02:14:02;30.52;;;21.67;;
55112;SDS011;41006;50.920;3.456;2023-04-25T02:14:33;24.50;;;20.83;;
55112;SDS011;41006;50.920;3.456;2023-04-25T02:15:03;23.90;;;21.40;;
55112;SDS011;41006;50.920;3.456;2023-04-25T02:15:36;23.80;;;21.65;;
55112;SDS011;41006;50.920;3.456;2023-04-25T02:16:08;24.98;;;22.40;;
55112;SDS011;41006;50.920;3.456;2023-04-25T02:16:41;24.30;;;21.40;;
55112;SDS011;41006;50.920;3.456;2023-04-25T02:17:13;31.35;;;22.25;;
55112;SDS011;41006;50.920;3.456;2023-04-25T02:17:46;23.75;;;21.55;;
55112;SDS011;41006;50.920;3.456;2023-04-25T02:18:17;31.70;;;22.48;;
55112;SDS011;41006;50.920;3.456;2023-04-25T02:18:51;24.67;;;22.17;;
55112;SDS011;41006;50.920;3.456;2023-04-25T02:19:25;24.13;;;21.58;;
55112;SDS011;41006;50.920;3.456;2023-04-25T02:19:57;26.00;;;21.80;;
55112;SDS011;41006;50.920;3.456;2023-04-25T02:20:28;24.70;;;21.25;;
55112;SDS011;41006;50.920;3.456;2023-04-25T02:20:59;24.50;;;21.88;;
55112;SDS011;41006;50.920;3.456;2023-04-25T02:21:29;23.45;;;21.05;;
55112;SDS011;41006;50.920;3.456;2023-04-25T02:22:00;35.55;;;22.52;;
55112;SDS011;41006;50.920;3.456;2023-04-25T02:22:35;26.77;;;19.77;;
55112;SDS011;41006;50.920;3.456;2023-04-25T02:23:07;21.73;;;19.50;;
55112;SDS011;41006;50.920;3.456;2023-04-25T02:23:40;22.98;;;20.10;;
55112;SDS011;41006;50.920;3.456;2023-04-25T02:24:15;21.98;;;19.55;;
55112;SDS011;41006;50.920;3.456;2023-04-25T02:24:46;29.30;;;20.40;;
55112;SDS011;41006;50.920;3.456;2023-04-25T02:25:16;26.63;;;19.88;;
55112;SDS011;41006;50.920;3.456;2023-04-25T02:25:47;22.65;;;20.38;;
55112;SDS011;41006;50.920;3.456;2023-04-25T02:26:18;21.67;;;19.25;;
55112;SDS011;41006;50.920;3.456;2023-04-25T02:26:48;21.17;;;18.35;;
55112;SDS011;41006;50.920;3.456;2023-04-25T02:27:19;23.70;;;19.35;;
55112;SDS011;41006;50.920;3.456;2023-04-25T02:27:52;22.70;;;20.40;;
55112;SDS011;41006;50.920;3.456;2023-04-25T02:28:24;27.20;;;19.70;;
55112;SDS011;41006;50.920;3.456;2023-04-25T02:28:58;22.15;;;19.67;;
55112;SDS011;41006;50.920;3.456;2023-04-25T02:29:31;21.33;;;19.35;;
55112;SDS011;41006;50.920;3.456;2023-04-25T02:30:01;23.30;;;20.92;;
55112;SDS011;41006;50.920;3.456;2023-04-25T02:30:34;21.38;;;19.23;;
55112;SDS011;41006;50.920;3.456;2023-04-25T02:31:06;20.83;;;18.92;;
55112;SDS011;41006;50.920;3.456;2023-04-25T02:31:36;23.20;;;20.70;;
55112;SDS011;41006;50.920;3.456;2023-04-25T02:32:09;22.80;;;18.67;;
55112;SDS011;41006;50.920;3.456;2023-04-25T02:32:42;20.88;;;18.90;;
55112;SDS011;41006;50.920;3.456;2023-04-25T02:33:12;25.65;;;18.42;;
55112;SDS011;41006;50.920;3.456;2023-04-25T02:33:42;25.55;;;19.23;;
55112;SDS011;41006;50.920;3.456;2023-04-25T02:34:13;26.48;;;18.52;;
55112;SDS011;41006;50.920;3.456;2023-04-25T02:34:43;20.55;;;18.40;;
55112;SDS011;41006;50.920;3.456;2023-04-25T02:35:16;29.52;;;18.98;;
55112;SDS011;41006;50.920;3.456;2023-04-25T02:35:46;23.65;;;17.98;;
55112;SDS011;41006;50.920;3.456;2023-04-25T02:36:19;18.23;;;16.40;;
55112;SDS011;41006;50.920;3.456;2023-04-25T02:36:51;20.20;;;18.23;;
55112;SDS011;41006;50.920;3.456;2023-04-25T02:37:25;19.60;;;17.52;;
55112;SDS011;41006;50.920;3.456;2023-04-25T02:37:57;22.88;;;17.80;;
55112;SDS011;41006;50.920;3.456;2023-04-25T02:38:32;23.55;;;17.92;;
55112;SDS011;41006;50.920;3.456;2023-04-25T02:39:02;20.05;;;18.23;;
55112;SDS011;41006;50.920;3.456;2023-04-25T02:39:35;29.55;;;18.48;;
55112;SDS011;41006;50.920;3.456;2023-04-25T02:40:06;22.83;;;18.25;;
55112;SDS011;41006;50.920;3.456;2023-04-25T02:40:36;22.27;;;17.63;;
55112;SDS011;41006;50.920;3.456;2023-04-25T02:41:06;19.98;;;17.65;;
55112;SDS011;41006;50.920;3.456;2023-04-25T02:41:37;19.95;;;17.02;;
55112;SDS011;41006;50.920;3.456;2023-04-25T02:42:07;18.52;;;16.65;;
55112;SDS011;41006;50.920;3.456;2023-04-25T02:42:37;19.75;;;17.70;;
55112;SDS011;41006;50.920;3.456;2023-04-25T02:43:07;18.90;;;17.35;;
55112;SDS011;41006;50.920;3.456;2023-04-25T02:43:40;25.35;;;17.70;;
55112;SDS011;41006;50.920;3.456;2023-04-25T02:44:11;23.20;;;19.42;;
55112;SDS011;41006;50.920;3.456;2023-04-25T02:44:44;21.15;;;18.17;;
55112;SDS011;41006;50.920;3.456;2023-04-25T02:45:14;20.65;;;18.50;;
55112;SDS011;41006;50.920;3.456;2023-04-25T02:45:47;20.63;;;18.58;;
55112;SDS011;41006;50.920;3.456;2023-04-25T02:46:17;19.75;;;17.70;;
55112;SDS011;41006;50.920;3.456;2023-04-25T02:46:47;21.98;;;18.42;;
55112;SDS011;41006;50.920;3.456;2023-04-25T02:47:17;20.48;;;18.48;;
55112;SDS011;41006;50.920;3.456;2023-04-25T02:47:48;22.17;;;18.92;;
55112;SDS011;41006;50.920;3.456;2023-04-25T02:48:20;21.52;;;19.42;;
55112;SDS011;41006;50.920;3.456;2023-04-25T02:48:50;23.15;;;19.48;;
55112;SDS011;41006;50.920;3.456;2023-04-25T02:49:21;22.48;;;19.95;;
55112;SDS011;41006;50.920;3.456;2023-04-25T02:49:51;25.42;;;19.27;;
55112;SDS011;41006;50.920;3.456;2023-04-25T02:50:23;20.63;;;18.15;;
55112;SDS011;41006;50.920;3.456;2023-04-25T02:50:59;21.52;;;19.15;;
55112;SDS011;41006;50.920;3.456;2023-04-25T02:51:31;25.52;;;18.77;;
55112;SDS011;41006;50.920;3.456;2023-04-25T02:52:02;21.92;;;17.77;;
55112;SDS011;41006;50.920;3.456;2023-04-25T02:52:35;23.85;;;18.48;;
55112;SDS011;41006;50.920;3.456;2023-04-25T02:53:05;25.48;;;18.67;;
55112;SDS011;41006;50.920;3.456;2023-04-25T02:53:35;19.92;;;17.98;;
55112;SDS011;41006;50.920;3.456;2023-04-25T02:54:08;21.00;;;18.88;;
55112;SDS011;41006;50.920;3.456;2023-04-25T02:54:41;27.45;;;20.15;;
55112;SDS011;41006;50.920;3.456;2023-04-25T02:55:14;21.08;;;18.75;;
55112;SDS011;41006;50.920;3.456;2023-04-25T02:55:47;22.40;;;16.25;;
55112;SDS011;41006;50.920;3.456;2023-04-25T02:56:17;22.35;;;19.92;;
55112;SDS011;41006;50.920;3.456;2023-04-25T02:56:49;19.85;;;17.92;;
55112;SDS011;41006;50.920;3.456;2023-04-25T02:57:22;23.52;;;18.88;;
55112;SDS011;41006;50.920;3.456;2023-04-25T02:57:55;21.63;;;19.45;;
55112;SDS011;41006;50.920;3.456;2023-04-25T02:58:25;20.77;;;18.73;;
55112;SDS011;41006;50.920;3.456;2023-04-25T02:58:55;20.63;;;18.20;;
55112;SDS011;41006;50.920;3.456;2023-04-25T02:59:28;24.77;;;18.80;;
55112;SDS011;41006;50.920;3.456;2023-04-25T02:59:58;21.05;;;18.90;;
55112;SDS011;41006;50.920;3.456;2023-04-25T03:00:31;23.67;;;19.58;;
55112;SDS011;41006;50.920;3.456;2023-04-25T03:01:03;22.77;;;20.42;;
55112;SDS011;41006;50.920;3.456;2023-04-25T03:01:33;22.10;;;19.98;;
55112;SDS011;41006;50.920;3.456;2023-04-25T03:02:04;23.27;;;21.02;;
55112;SDS011;41006;50.920;3.456;2023-04-25T03:02:36;22.45;;;20.05;;
55112;SDS011;41006;50.920;3.456;2023-04-25T03:03:10;22.80;;;20.42;;
55112;SDS011;41006;50.920;3.456;2023-04-25T03:03:40;23.40;;;21.00;;
55112;SDS011;41006;50.920;3.456;2023-04-25T03:04:12;22.85;;;20.60;;
55112;SDS011;41006;50.920;3.456;2023-04-25T03:04:43;23.35;;;21.15;;
55112;SDS011;41006;50.920;3.456;2023-04-25T03:05:13;23.90;;;21.42;;